createdAt,value
2023-05-14T04:26:46.778Z,13.92
2023-05-14T04:29:13.264Z,14.75
2023-05-14T04:31:39.726Z,14.88
2023-05-14T04:34:06.277Z,16.75
2023-05-14T04:36:32.777Z,15.96
2023-05-14T04:38:59.267Z,17.15
2023-05-14T04:41:25.777Z,17.97
2023-05-14T04:43:52.269Z,17.47
2023-05-14T04:46:18.835Z,19.13
2023-05-14T04:48:45.405Z,19.18
2023-05-14T04:51:11.937Z,18.09
2023-05-14T04:53:38.363Z,18.34
2023-05-14T04:56:04.844Z,17.26
2023-05-14T04:58:32.796Z,17.92
2023-05-14T05:01:00.868Z,18.96
2023-05-14T05:03:27.398Z,18.90
2023-05-14T05:05:53.971Z,18.81
2023-05-14T05:08:20.430Z,18.58
2023-05-14T05:10:46.902Z,18.14
2023-05-14T05:13:13.349Z,16.53
2023-05-14T05:15:39.794Z,17.72
2023-05-14T05:18:06.308Z,18.80
2023-05-14T05:20:32.849Z,18.84
2023-05-14T05:22:59.415Z,17.78
2023-05-14T05:25:25.974Z,17.07
2023-05-14T05:27:52.498Z,18.22
2023-05-14T05:30:19.023Z,17.12
2023-05-14T05:32:45.643Z,19.41
2023-05-14T05:35:12.184Z,17.49
2023-05-14T05:37:38.666Z,19.69
2023-05-14T05:40:05.078Z,18.89
2023-05-14T05:42:31.593Z,18.64
2023-05-14T05:44:58.052Z,19.62
2023-05-14T05:47:24.792Z,18.36
2023-05-14T05:49:51.316Z,18.07
2023-05-14T05:52:17.750Z,19.93
2023-05-14T05:54:44.250Z,17.53
2023-05-14T05:57:10.723Z,17.83
2023-05-14T05:59:37.223Z,17.69
2023-05-14T06:02:03.770Z,18.30
2023-05-14T06:04:30.297Z,17.77
2023-05-14T06:06:56.755Z,19.73
2023-05-14T06:09:23.166Z,19.81
2023-05-14T06:11:49.955Z,19.38
2023-05-14T06:14:16.437Z,18.38
2023-05-14T06:16:43.018Z,19.15
2023-05-14T06:19:09.543Z,17.82
2023-05-14T06:21:35.999Z,17.20
2023-05-14T06:24:02.406Z,17.14
2023-05-14T06:26:28.859Z,18.00
2023-05-14T06:28:55.320Z,16.79
2023-05-14T06:31:21.740Z,18.10
2023-05-14T06:33:48.190Z,17.85
2023-05-14T06:36:14.675Z,17.37
2023-05-14T06:38:41.117Z,17.85
2023-05-14T06:41:07.626Z,16.79
2023-05-14T06:43:34.144Z,16.93
2023-05-14T06:46:00.551Z,16.74
2023-05-14T06:48:27.144Z,17.42
2023-05-14T06:50:53.758Z,16.04
2023-05-14T06:53:20.198Z,18.88
2023-05-14T06:55:46.960Z,18.11
2023-05-14T06:58:13.441Z,17.69
2023-05-14T07:00:39.926Z,17.27
2023-05-14T07:03:06.468Z,18.19
2023-05-14T07:05:32.999Z,18.57
2023-05-14T07:07:59.478Z,16.87
2023-05-14T07:10:26.194Z,16.17
2023-05-14T07:12:52.887Z,18.33
2023-05-14T07:15:19.380Z,15.86
2023-05-14T07:17:45.939Z,17.26
2023-05-14T07:20:12.506Z,16.10
2023-05-14T07:22:39.034Z,16.10
2023-05-14T07:25:05.590Z,16.13
2023-05-14T07:27:32.044Z,16.34
2023-05-14T07:29:58.518Z,16.17
2023-05-14T07:32:25.106Z,16.21
2023-05-14T07:34:51.750Z,15.52
2023-05-14T07:37:18.381Z,16.38
2023-05-14T07:39:44.856Z,16.67
2023-05-14T07:42:13.740Z,18.11
2023-05-14T07:44:45.922Z,16.51
2023-05-14T07:47:12.458Z,16.29
2023-05-14T07:49:39.020Z,16.86
2023-05-14T07:52:05.495Z,15.60
2023-05-14T07:54:32.051Z,15.08
2023-05-14T07:56:58.524Z,15.52
2023-05-14T07:59:25.005Z,15.92
2023-05-14T08:01:51.506Z,15.98
2023-05-14T08:04:18.131Z,15.20
2023-05-14T08:06:44.769Z,16.27
2023-05-14T08:09:11.200Z,16.50
2023-05-14T08:11:37.693Z,15.84
2023-05-14T08:14:04.226Z,17.63
2023-05-14T08:16:30.797Z,17.12
2023-05-14T08:18:57.328Z,16.34
2023-05-14T08:21:23.874Z,16.21
2023-05-14T08:23:50.341Z,16.88
2023-05-14T08:26:16.780Z,15.98
2023-05-14T08:28:43.297Z,15.92
2023-05-14T08:31:09.907Z,16.71
2023-05-14T08:33:36.417Z,16.44
2023-05-14T08:36:02.920Z,16.18
2023-05-14T08:38:29.478Z,15.58
2023-05-14T08:40:55.961Z,15.33
2023-05-14T08:43:22.448Z,15.04
2023-05-14T08:45:49.013Z,17.45
2023-05-14T08:48:15.663Z,16.76
2023-05-14T08:50:42.200Z,14.83
2023-05-14T08:53:08.654Z,15.36
2023-05-14T08:55:35.389Z,14.25
2023-05-14T08:58:01.912Z,15.37
2023-05-14T09:00:28.493Z,15.28
2023-05-14T09:02:55.100Z,14.28
2023-05-14T09:05:21.605Z,14.99
2023-05-14T09:07:48.120Z,14.50
2023-05-14T09:10:14.597Z,14.72
2023-05-14T09:12:41.032Z,14.71
2023-05-14T09:15:07.556Z,16.76
2023-05-14T09:17:34.121Z,17.34
2023-05-14T09:20:00.671Z,21.98
2023-05-14T09:22:27.169Z,21.05
2023-05-14T09:24:53.667Z,21.44
2023-05-14T09:27:20.120Z,20.90
2023-05-14T09:29:46.614Z,20.28
2023-05-14T09:32:13.074Z,20.58
2023-05-14T09:34:39.655Z,18.31
2023-05-14T09:37:06.179Z,19.27
2023-05-14T09:39:32.670Z,20.91
2023-05-14T09:41:59.150Z,20.69
2023-05-14T09:44:25.677Z,18.94
2023-05-14T09:46:52.200Z,19.37
2023-05-14T09:49:18.773Z,20.58
2023-05-14T09:51:45.263Z,20.41
2023-05-14T09:54:11.748Z,18.59
2023-05-14T09:56:38.232Z,19.48
2023-05-14T09:59:04.755Z,21.55
2023-05-14T10:01:31.226Z,19.18
2023-05-14T10:03:57.776Z,19.15
2023-05-14T10:06:24.288Z,20.75
2023-05-14T10:08:50.747Z,18.70
2023-05-14T10:11:17.160Z,19.39
2023-05-14T10:13:43.682Z,18.13
2023-05-14T10:16:10.162Z,18.34
2023-05-14T10:18:36.693Z,20.47
2023-05-14T10:21:03.317Z,17.94
2023-05-14T10:23:29.839Z,16.73
2023-05-14T10:25:56.331Z,17.43
2023-05-14T10:28:22.875Z,17.46
2023-05-14T10:30:49.475Z,19.39
2023-05-14T10:33:15.991Z,18.57
2023-05-14T10:35:42.455Z,18.66
2023-05-14T10:38:08.921Z,16.33
2023-05-14T10:40:35.416Z,17.09
2023-05-14T10:43:01.870Z,17.68
2023-05-14T10:45:28.302Z,18.13
2023-05-14T10:47:54.894Z,18.16
2023-05-14T10:50:21.329Z,17.82
2023-05-14T10:52:47.839Z,20.47
2023-05-14T10:55:14.325Z,30.54
2023-05-14T10:57:40.882Z,49.12
2023-05-14T11:00:07.483Z,78.13
2023-05-14T11:02:34.180Z,86.16
2023-05-14T11:05:00.830Z,96.44
2023-05-14T11:07:27.367Z,105.36
2023-05-14T11:09:53.866Z,138.93
2023-05-14T11:12:20.470Z,171.91
2023-05-14T11:14:46.985Z,160.82
2023-05-14T11:17:13.484Z,147.53
2023-05-14T11:19:40.066Z,115.82
2023-05-14T11:22:06.539Z,101.80
2023-05-14T11:24:33.062Z,91.86
2023-05-14T11:26:59.643Z,84.50
2023-05-14T11:29:26.150Z,80.13
2023-05-14T11:31:52.667Z,73.04
2023-05-14T11:34:19.178Z,71.07
2023-05-14T11:36:45.709Z,65.04
2023-05-14T11:39:12.249Z,61.29
2023-05-14T11:41:38.812Z,56.95
2023-05-14T11:44:06.341Z,55.00
2023-05-14T11:46:33.798Z,51.15
2023-05-14T11:49:00.318Z,46.27
2023-05-14T11:51:26.818Z,48.40
2023-05-14T11:53:53.338Z,49.41
2023-05-14T11:56:19.885Z,46.23
2023-05-14T11:58:46.415Z,44.28
2023-05-14T12:01:12.955Z,43.25
2023-05-14T12:03:39.479Z,43.57
2023-05-14T12:06:06.010Z,43.00
2023-05-14T12:08:32.431Z,41.43
2023-05-14T12:10:58.984Z,39.56
2023-05-14T12:13:25.457Z,37.17
2023-05-14T12:15:51.901Z,37.05
2023-05-14T12:18:24.489Z,37.67
2023-05-14T12:20:51.550Z,36.44
2023-05-14T12:23:18.011Z,35.11
2023-05-14T12:25:44.465Z,35.68
2023-05-14T12:28:11.137Z,32.90
2023-05-14T12:30:37.636Z,31.38
2023-05-14T12:33:04.146Z,31.57
2023-05-14T12:35:30.663Z,33.82
2023-05-14T12:37:57.168Z,33.67
2023-05-14T12:40:23.879Z,32.65
2023-05-14T12:42:50.590Z,31.19
2023-05-14T12:45:17.030Z,29.44
2023-05-14T12:47:43.518Z,31.48
2023-05-14T12:50:10.116Z,27.60
2023-05-14T12:52:39.217Z,29.41
2023-05-14T12:55:06.497Z,27.15
2023-05-14T12:57:32.899Z,27.71
2023-05-14T12:59:59.294Z,29.04
2023-05-14T13:02:25.770Z,27.97
2023-05-14T13:04:55.428Z,26.62
2023-05-14T13:07:21.924Z,26.91
2023-05-14T13:09:48.425Z,26.75
2023-05-14T13:12:14.987Z,29.60
2023-05-14T13:14:41.426Z,26.84
2023-05-14T13:17:08.148Z,27.10
2023-05-14T13:19:34.723Z,24.93
2023-05-14T13:22:01.336Z,24.84
2023-05-14T13:24:27.756Z,24.23
2023-05-14T13:26:54.266Z,22.76
2023-05-14T13:29:20.783Z,24.52
2023-05-14T13:31:47.253Z,24.69
2023-05-14T13:34:13.691Z,25.29
2023-05-14T13:36:40.203Z,25.32
2023-05-14T13:39:06.761Z,22.49
2023-05-14T13:41:33.301Z,23.12
2023-05-14T13:43:59.797Z,24.66
2023-05-14T13:46:26.342Z,23.58
2023-05-14T13:48:52.869Z,21.73
2023-05-14T13:51:19.391Z,21.96
2023-05-14T13:53:45.881Z,22.42
2023-05-14T13:56:12.393Z,21.35
2023-05-14T13:58:38.901Z,23.20
2023-05-14T14:01:05.394Z,21.84
2023-05-14T14:03:31.952Z,21.09
2023-05-14T14:05:58.427Z,24.25
2023-05-14T14:08:25.006Z,23.11
2023-05-14T14:10:51.506Z,20.34
2023-05-14T14:13:17.944Z,22.07
2023-05-14T14:15:44.646Z,21.06
2023-05-14T14:18:11.150Z,21.76
2023-05-14T14:20:37.594Z,21.54
2023-05-14T14:23:04.126Z,22.24
2023-05-14T14:25:30.619Z,20.86
2023-05-14T14:27:57.089Z,21.36
2023-05-14T14:30:23.548Z,22.10
2023-05-14T14:32:50.072Z,21.78
2023-05-14T14:35:16.629Z,22.79
2023-05-14T14:37:43.057Z,21.21
2023-05-14T14:40:09.687Z,20.72
2023-05-14T14:42:38.923Z,20.88
2023-05-14T14:45:05.491Z,21.44
2023-05-14T14:47:32.134Z,20.38
2023-05-14T14:49:58.807Z,22.15
2023-05-14T14:52:25.349Z,21.44
2023-05-14T14:54:51.910Z,19.08
2023-05-14T14:57:18.497Z,19.99
2023-05-14T14:59:45.019Z,20.28
2023-05-14T15:02:11.548Z,19.84
2023-05-14T15:04:38.075Z,20.40
2023-05-14T15:07:04.586Z,19.75
2023-05-14T15:09:31.055Z,18.54
2023-05-14T15:11:57.641Z,20.31
2023-05-14T15:14:24.074Z,17.79
2023-05-14T15:16:51.133Z,16.90
2023-05-14T15:19:17.802Z,17.65
2023-05-14T15:21:44.345Z,17.76
2023-05-14T15:24:10.864Z,17.27
2023-05-14T15:26:37.303Z,16.95
2023-05-14T15:29:03.872Z,16.70
2023-05-14T15:31:30.416Z,15.58
2023-05-14T15:33:56.932Z,16.87
2023-05-14T15:36:23.582Z,15.80
2023-05-14T15:38:50.062Z,16.93
2023-05-14T15:41:16.637Z,18.06
2023-05-14T15:43:43.188Z,17.15
2023-05-14T15:46:09.652Z,16.04
2023-05-14T15:48:37.290Z,17.30
2023-05-14T15:51:03.792Z,16.81
2023-05-14T15:53:30.360Z,15.97
2023-05-14T15:55:56.839Z,16.04
2023-05-14T15:58:23.345Z,15.49
2023-05-14T16:00:49.789Z,15.23
2023-05-14T16:03:16.357Z,15.68
2023-05-14T16:05:42.857Z,14.47
2023-05-14T16:08:09.295Z,14.43
2023-05-14T16:10:35.834Z,13.49
2023-05-14T16:13:02.402Z,15.06
2023-05-14T16:15:28.843Z,15.51
2023-05-14T16:17:55.378Z,16.65
2023-05-14T16:20:22.076Z,19.18
2023-05-14T16:22:48.644Z,20.31
2023-05-14T16:25:15.076Z,20.73
2023-05-14T16:27:41.693Z,20.41
2023-05-14T16:30:08.208Z,20.50
2023-05-14T16:32:34.749Z,19.93
2023-05-14T16:37:46.141Z,19.04
2023-05-14T16:40:12.661Z,20.10
2023-05-14T16:42:39.111Z,20.25
2023-05-14T16:45:05.847Z,20.75
2023-05-14T16:47:32.347Z,20.82
2023-05-14T16:49:58.887Z,19.66
2023-05-14T16:52:25.371Z,20.77
2023-05-14T16:54:51.899Z,20.08
2023-05-14T16:57:18.387Z,20.69
2023-05-14T16:59:44.825Z,21.22
2023-05-14T17:02:11.285Z,21.01
2023-05-14T17:04:37.777Z,19.58
2023-05-14T17:07:04.299Z,21.43
2023-05-14T17:09:31.245Z,23.34
2023-05-14T17:11:57.779Z,21.04
2023-05-14T17:14:24.245Z,20.78
2023-05-14T17:16:50.683Z,20.34
2023-05-14T17:19:17.430Z,20.35
2023-05-14T17:21:43.977Z,21.64
2023-05-14T17:24:10.469Z,20.65
2023-05-14T17:26:36.968Z,20.22
2023-05-14T17:29:03.397Z,20.57
2023-05-14T17:31:29.916Z,20.22
2023-05-14T17:33:56.470Z,20.55
2023-05-14T17:36:22.975Z,20.30
2023-05-14T17:38:49.509Z,19.67
2023-05-14T17:41:15.990Z,20.65
2023-05-14T17:43:42.446Z,19.49
2023-05-14T17:46:08.956Z,21.21
2023-05-14T17:48:35.459Z,21.24
2023-05-14T17:51:01.960Z,20.65
2023-05-14T17:53:28.500Z,18.31
2023-05-14T17:55:54.929Z,19.08
2023-05-14T17:58:21.447Z,19.50
2023-05-14T18:00:47.945Z,20.11
2023-05-14T18:03:14.594Z,21.23
2023-05-14T18:05:41.058Z,18.28
2023-05-14T18:08:07.525Z,19.58
2023-05-14T18:10:34.027Z,20.38
2023-05-14T18:13:00.719Z,19.07
2023-05-14T18:15:27.228Z,20.75
2023-05-14T18:17:53.778Z,19.69
2023-05-14T18:20:20.431Z,18.62
2023-05-14T18:22:46.956Z,19.83
2023-05-14T18:25:13.411Z,18.19
2023-05-14T18:27:39.857Z,19.06
2023-05-14T18:30:06.329Z,20.29
2023-05-14T18:32:32.828Z,19.79
2023-05-14T18:34:59.346Z,18.05
2023-05-14T18:37:25.843Z,17.15
2023-05-14T18:39:52.305Z,18.13
2023-05-14T18:42:18.933Z,18.43
2023-05-14T18:44:45.466Z,18.19
2023-05-14T18:47:11.965Z,18.80
2023-05-14T18:49:38.460Z,18.65
2023-05-14T18:52:04.961Z,18.86
2023-05-14T18:54:31.383Z,18.74
2023-05-14T18:56:57.877Z,19.01
2023-05-14T18:59:24.450Z,18.66
2023-05-14T19:01:50.943Z,18.76
2023-05-14T19:32:44.704Z,18.38
2023-05-14T19:35:11.176Z,18.95
2023-05-14T19:37:37.609Z,17.99
2023-05-14T19:40:04.137Z,16.93
2023-05-14T19:42:30.683Z,16.80
2023-05-14T19:44:57.172Z,17.82
2023-05-14T19:47:23.635Z,17.19
2023-05-14T19:49:50.174Z,17.11
2023-05-14T19:52:19.636Z,15.97
2023-05-14T19:54:46.145Z,18.19
2023-05-14T19:57:12.682Z,16.87
2023-05-14T19:59:39.129Z,17.34
2023-05-14T20:02:05.754Z,17.30
2023-05-14T20:04:32.286Z,17.48
2023-05-14T20:06:58.819Z,16.97
2023-05-14T20:09:25.258Z,30.60
2023-05-14T20:11:52.624Z,54.23
2023-05-14T20:14:20.592Z,31.33
2023-05-14T20:16:47.397Z,22.63
2023-05-14T20:19:14.027Z,22.94
2023-05-14T20:21:40.513Z,22.94
2023-05-14T20:24:07.051Z,21.80
2023-05-14T20:26:33.586Z,21.65
2023-05-14T20:29:00.178Z,21.74
2023-05-14T20:31:26.733Z,22.10
2023-05-14T20:33:53.206Z,21.51
2023-05-14T20:36:19.705Z,21.49
2023-05-14T20:38:46.142Z,21.60
2023-05-14T20:41:12.647Z,22.07
2023-05-14T20:43:39.172Z,20.87
2023-05-14T20:46:05.682Z,19.91
2023-05-14T20:48:32.241Z,20.77
